Time;durP1;ratioP1;P1;durP2;ratioP2;P2;SDS_P1;SDS_P2;PMS_P1;PMS_P2;Temp;Humidity;BMP_temperature;BMP_pressure;BME280_temperature;BME280_humidity;BME280_pressure;Samples;Min_cycle;Max_cycle;Signal;HPM_P1;HPM_P2
2023/08/17 00:01:26;;;;;;;15.40;5.38;;;17.00;99.90;;;;;;5058926;28;20061;-70
2023/08/17 00:03:52;;;;;;;14.25;5.63;;;17.00;99.90;;;;;;5070495;28;20051;-68
2023/08/17 00:06:18;;;;;;;15.63;5.28;;;16.90;99.90;;;;;;5059289;28;20020;-68
2023/08/17 00:08:43;;;;;;;16.30;6.10;;;16.90;99.90;;;;;;5065049;28;20028;-68
2023/08/17 00:11:09;;;;;;;11.68;5.00;;;16.90;99.90;;;;;;5066662;28;20579;-68
2023/08/17 00:13:35;;;;;;;13.63;5.22;;;16.90;99.90;;;;;;5057646;28;20116;-69
2023/08/17 00:16:01;;;;;;;12.40;5.78;;;16.90;99.90;;;;;;5070167;28;20480;-68
2023/08/17 00:18:27;;;;;;;14.05;5.07;;;16.90;99.90;;;;;;5061035;28;20029;-68
2023/08/17 00:20:53;;;;;;;16.23;5.47;;;16.90;99.90;;;;;;5063230;28;20032;-68
2023/08/17 00:23:20;;;;;;;13.52;5.75;;;16.90;99.90;;;;;;5068033;28;20047;-68
2023/08/17 00:25:47;;;;;;;10.35;4.93;;;16.90;99.90;;;;;;5057114;28;20029;-70
2023/08/17 00:28:13;;;;;;;12.98;5.55;;;16.80;99.90;;;;;;5068614;28;20032;-68
2023/08/17 00:30:38;;;;;;;14.63;4.82;;;16.80;99.90;;;;;;5062148;28;20028;-70
2023/08/17 00:33:04;;;;;;;11.07;4.80;;;16.80;99.90;;;;;;5060448;28;20033;-69
2023/08/17 00:35:30;;;;;;;14.35;5.38;;;16.80;99.90;;;;;;5068911;28;20388;-69
2023/08/17 00:37:56;;;;;;;11.93;4.78;;;16.80;99.90;;;;;;5056927;28;20029;-69
2023/08/17 00:40:22;;;;;;;17.42;4.38;;;16.70;99.90;;;;;;5067411;28;20033;-69
2023/08/17 00:42:47;;;;;;;11.30;4.80;;;16.80;99.90;;;;;;5063267;28;20040;-68
2023/08/17 00:45:13;;;;;;;10.20;4.65;;;16.70;99.90;;;;;;5060250;28;20036;-68
2023/08/17 00:47:39;;;;;;;9.82;4.57;;;16.70;99.90;;;;;;5069754;28;20088;-68
2023/08/17 00:50:06;;;;;;;9.65;4.72;;;16.70;99.90;;;;;;5056878;28;20042;-68
2023/08/17 00:52:33;;;;;;;12.85;5.25;;;16.70;99.90;;;;;;5065731;28;20479;-67
2023/08/17 00:55:00;;;;;;;16.15;5.53;;;16.70;99.90;;;;;;5064110;28;20369;-68
2023/08/17 00:57:26;;;;;;;11.73;5.32;;;16.60;99.90;;;;;;5057767;28;20025;-67
2023/08/17 00:59:52;;;;;;;9.38;4.68;;;16.60;99.90;;;;;;5069189;28;20040;-70
2023/08/17 01:02:19;;;;;;;12.43;5.20;;;16.60;99.90;;;;;;5058711;28;20020;-68
2023/08/17 01:04:44;;;;;;;15.18;5.05;;;16.60;99.90;;;;;;5063374;28;20037;-68
2023/08/17 01:07:10;;;;;;;15.90;5.10;;;16.60;99.90;;;;;;5066016;28;20028;-69
2023/08/17 01:09:37;;;;;;;11.73;5.18;;;16.60;99.90;;;;;;5056725;28;20453;-71
2023/08/17 01:12:24;;;;;;;10.23;4.47;;;16.50;99.90;;;;;;5069262;28;20028;-70
2023/08/17 01:15:09;;;;;;;9.77;4.53;;;16.50;99.90;;;;;;5062645;28;20036;-69
2023/08/17 01:17:48;;;;;;;12.60;4.45;;;16.50;99.90;;;;;;5056582;28;20033;-68
2023/08/17 01:20:16;;;;;;;11.10;4.65;;;16.50;99.90;;;;;;5042687;28;20043;-69
2023/08/17 01:22:45;;;;;;;8.35;4.55;;;16.50;99.90;;;;;;5063647;28;20469;-68
2023/08/17 01:25:11;;;;;;;11.13;4.68;;;16.50;99.90;;;;;;5065470;28;20039;-69
2023/08/17 01:27:40;;;;;;;8.95;4.35;;;16.50;99.90;;;;;;5055998;28;20021;-68
2023/08/17 01:30:07;;;;;;;12.52;4.38;;;16.40;99.90;;;;;;5040816;28;20020;-69
2023/08/17 01:32:44;;;;;;;8.63;4.63;;;16.40;99.90;;;;;;5064922;28;20025;-68
2023/08/17 01:35:40;;;;;;;8.82;4.55;;;16.40;99.90;;;;;;5065218;28;20029;-68
2023/08/17 01:38:16;;;;;;;10.48;4.78;;;16.40;99.90;;;;;;5043243;28;20036;-68
2023/08/17 01:40:43;;;;;;;10.80;4.78;;;16.40;99.90;;;;;;5063659;28;20120;-68
2023/08/17 01:43:09;;;;;;;13.35;5.00;;;16.40;99.90;;;;;;5064568;28;20028;-68
2023/08/17 01:45:35;;;;;;;10.90;4.85;;;16.40;99.90;;;;;;5056234;28;20029;-68
2023/08/17 01:48:01;;;;;;;11.45;4.90;;;16.30;99.90;;;;;;5067349;28;20053;-69
2023/08/17 01:50:26;;;;;;;13.43;4.82;;;16.30;99.90;;;;;;5057456;28;20035;-68
2023/08/17 01:52:53;;;;;;;14.63;4.68;;;16.40;99.90;;;;;;5060813;28;20059;-68
2023/08/17 01:55:22;;;;;;;12.38;4.53;;;16.30;99.90;;;;;;5066539;28;20029;-71
2023/08/17 01:57:47;;;;;;;10.80;4.50;;;16.30;99.90;;;;;;5055442;28;20033;-70
2023/08/17 02:00:13;;;;;;;12.43;4.55;;;16.30;99.90;;;;;;5067163;28;20063;-68
2023/08/17 02:02:39;;;;;;;13.02;4.70;;;16.30;99.90;;;;;;5060631;28;20025;-70
2023/08/17 02:05:05;;;;;;;12.00;4.80;;;16.30;99.90;;;;;;5059725;28;20029;-68
2023/08/17 02:07:30;;;;;;;10.32;4.63;;;16.30;99.90;;;;;;5067739;28;20032;-69
2023/08/17 02:09:56;;;;;;;11.88;4.53;;;16.30;99.90;;;;;;5054954;28;20033;-71
2023/08/17 02:12:21;;;;;;;15.85;5.78;;;16.30;99.90;;;;;;5064712;28;20035;-68
2023/08/17 02:14:47;;;;;;;11.05;4.72;;;16.20;99.90;;;;;;5061944;28;20419;-70
2023/08/17 02:17:13;;;;;;;11.73;5.22;;;16.20;99.90;;;;;;5058723;28;20416;-69
2023/08/17 02:19:38;;;;;;;11.05;4.43;;;16.30;99.90;;;;;;5066723;28;20388;-69
2023/08/17 02:22:05;;;;;;;7.85;4.13;;;16.20;99.90;;;;;;5055330;28;20021;-69
2023/08/17 02:24:30;;;;;;;10.02;4.55;;;16.20;99.90;;;;;;5063170;28;20056;-68
2023/08/17 02:26:56;;;;;;;11.60;4.47;;;16.30;99.90;;;;;;5062723;28;20532;-68
2023/08/17 02:29:22;;;;;;;12.25;4.78;;;16.20;99.90;;;;;;5057403;28;20028;-69
2023/08/17 02:31:47;;;;;;;12.52;4.88;;;16.20;99.90;;;;;;5068184;28;20369;-67
2023/08/17 02:34:13;;;;;;;10.82;5.03;;;16.20;99.90;;;;;;5056290;28;20074;-70
2023/08/17 02:36:38;;;;;;;11.77;5.30;;;16.20;99.90;;;;;;5063393;28;20032;-70
2023/08/17 02:39:04;;;;;;;11.77;5.18;;;16.10;99.90;;;;;;5063710;28;20107;-68
2023/08/17 02:41:31;;;;;;;9.85;4.82;;;16.10;99.90;;;;;;5056198;28;20449;-68
2023/08/17 02:43:57;;;;;;;13.68;5.65;;;16.10;99.90;;;;;;5068103;28;20385;-67
2023/08/17 02:46:23;;;;;;;11.18;5.30;;;16.10;99.90;;;;;;5057836;28;20055;-68
2023/08/17 02:48:49;;;;;;;12.55;5.22;;;16.10;99.90;;;;;;5061387;28;20035;-67
2023/08/17 02:51:15;;;;;;;15.13;5.22;;;16.00;99.90;;;;;;5065100;28;20064;-68
2023/08/17 02:53:41;;;;;;;12.25;5.05;;;16.00;99.90;;;;;;5053737;28;20061;-68
2023/08/17 02:56:06;;;;;;;13.05;5.20;;;16.00;99.90;;;;;;5066368;28;20057;-67
2023/08/17 02:58:32;;;;;;;11.80;5.28;;;16.00;99.90;;;;;;5058983;28;20421;-67
2023/08/17 03:00:57;;;;;;;13.68;5.95;;;16.00;99.90;;;;;;5059046;28;20033;-68
2023/08/17 03:03:23;;;;;;;14.65;5.68;;;16.00;99.90;;;;;;5065629;28;20336;-67
2023/08/17 03:05:48;;;;;;;10.85;5.60;;;16.00;99.90;;;;;;5054977;28;20104;-68
2023/08/17 03:08:14;;;;;;;16.92;5.85;;;16.00;99.90;;;;;;5066594;28;20053;-69
2023/08/17 03:10:39;;;;;;;13.07;6.03;;;16.00;99.90;;;;;;5060181;28;20033;-68
2023/08/17 03:13:05;;;;;;;10.63;5.63;;;16.00;99.90;;;;;;5059399;28;20036;-67
2023/08/17 03:15:31;;;;;;;13.27;6.32;;;15.90;99.90;;;;;;5051551;28;20033;-67
2023/08/17 03:17:56;;;;;;;13.13;5.68;;;15.90;99.90;;;;;;5050353;28;20469;-68
2023/08/17 03:20:22;;;;;;;12.05;5.38;;;15.90;99.90;;;;;;5050735;28;20059;-67
2023/08/17 03:22:47;;;;;;;13.02;6.00;;;15.90;99.90;;;;;;5053598;28;20017;-67
2023/08/17 03:25:13;;;;;;;13.68;5.97;;;15.90;99.90;;;;;;5053387;28;20049;-68
2023/08/17 03:27:38;;;;;;;13.73;6.22;;;15.90;99.90;;;;;;5055047;28;20021;-68
2023/08/17 03:30:05;;;;;;;16.02;6.38;;;15.90;99.90;;;;;;5054417;28;20380;-68
2023/08/17 03:32:31;;;;;;;9.82;5.90;;;15.90;99.90;;;;;;5054190;28;20021;-68
2023/08/17 03:34:56;;;;;;;12.65;5.47;;;15.90;99.90;;;;;;5053008;28;20039;-67
2023/08/17 03:37:22;;;;;;;11.65;5.85;;;15.80;99.90;;;;;;5052889;28;20048;-68
2023/08/17 03:39:48;;;;;;;13.98;5.95;;;15.80;99.90;;;;;;5054089;28;20432;-68
2023/08/17 03:42:13;;;;;;;10.40;5.90;;;15.80;99.90;;;;;;5053271;28;20025;-69
2023/08/17 03:44:39;;;;;;;12.50;5.97;;;15.80;99.90;;;;;;5054019;28;20029;-68
2023/08/17 03:47:04;;;;;;;13.13;6.35;;;15.80;99.90;;;;;;5053860;28;20041;-68
2023/08/17 03:49:30;;;;;;;11.32;5.75;;;15.80;99.90;;;;;;5053836;28;20021;-69
2023/08/17 03:51:56;;;;;;;12.00;6.22;;;15.70;99.90;;;;;;5054192;28;20028;-69
2023/08/17 03:54:21;;;;;;;14.60;6.45;;;15.70;99.90;;;;;;5054110;28;20037;-67
2023/08/17 03:56:47;;;;;;;16.20;6.10;;;15.70;99.90;;;;;;5053868;28;20021;-66
2023/08/17 03:59:14;;;;;;;16.77;6.75;;;15.70;99.90;;;;;;5054131;28;20033;-68
2023/08/17 04:01:39;;;;;;;15.60;7.07;;;15.70;99.90;;;;;;5058354;28;20477;-68
2023/08/17 04:04:05;;;;;;;13.80;6.30;;;15.70;99.90;;;;;;5068837;28;20037;-67
2023/08/17 04:06:31;;;;;;;13.05;6.45;;;15.60;99.90;;;;;;5063684;28;20070;-68
2023/08/17 04:08:56;;;;;;;14.13;6.80;;;15.60;99.90;;;;;;5061798;28;20380;-68
2023/08/17 04:11:22;;;;;;;12.05;6.85;;;15.60;99.90;;;;;;5070365;28;20392;-67
2023/08/17 04:13:47;;;;;;;16.45;7.00;;;15.60;99.90;;;;;;5056258;28;20066;-67
2023/08/17 04:16:13;;;;;;;15.95;6.43;;;15.60;99.90;;;;;;5067560;28;20381;-67
2023/08/17 04:18:38;;;;;;;16.33;6.82;;;15.50;99.90;;;;;;5064338;28;20067;-67
2023/08/17 04:21:04;;;;;;;15.82;6.93;;;15.50;99.90;;;;;;5059208;28;20075;-68
2023/08/17 04:23:29;;;;;;;18.15;7.03;;;15.50;99.90;;;;;;5070539;28;20043;-68
2023/08/17 04:25:55;;;;;;;15.23;6.32;;;15.60;99.90;;;;;;5058250;28;20017;-67
2023/08/17 04:28:20;;;;;;;13.20;5.90;;;15.60;99.90;;;;;;5066755;28;20021;-67
2023/08/17 04:30:46;;;;;;;13.45;6.88;;;15.60;99.90;;;;;;5064921;28;20051;-66
2023/08/17 04:33:12;;;;;;;11.85;6.47;;;15.60;99.90;;;;;;5058144;28;20033;-67
2023/08/17 04:35:38;;;;;;;14.85;6.15;;;15.60;99.90;;;;;;5070384;28;20130;-67
2023/08/17 04:38:04;;;;;;;14.63;6.50;;;15.60;99.90;;;;;;5059014;28;20049;-68
2023/08/17 04:40:30;;;;;;;10.57;6.30;;;15.60;99.90;;;;;;5063885;28;20040;-67
2023/08/17 04:42:55;;;;;;;15.00;6.88;;;15.60;99.90;;;;;;5065782;28;20041;-67
2023/08/17 04:45:21;;;;;;;14.32;6.13;;;15.60;99.90;;;;;;5057456;28;20037;-66
2023/08/17 04:47:46;;;;;;;15.57;6.63;;;15.60;99.90;;;;;;5069696;28;20507;-67
2023/08/17 04:50:16;;;;;;;12.32;6.20;;;15.60;99.90;;;;;;5060203;28;20056;-67
2023/08/17 04:52:44;;;;;;;12.48;5.72;;;15.70;99.90;;;;;;5062678;28;20028;-68
2023/08/17 04:55:10;;;;;;;11.45;5.47;;;15.70;99.90;;;;;;5067901;28;20032;-68
2023/08/17 04:57:36;;;;;;;15.98;7.00;;;15.70;99.90;;;;;;5056853;28;20051;-67
2023/08/17 05:00:03;;;;;;;12.48;5.72;;;15.80;99.90;;;;;;5067965;28;20033;-68
2023/08/17 05:02:28;;;;;;;12.45;5.78;;;15.90;99.90;;;;;;5062104;28;20082;-68
2023/08/17 05:04:54;;;;;;;13.23;5.70;;;15.90;99.90;;;;;;5060852;28;20041;-67
2023/08/17 05:07:19;;;;;;;14.52;5.40;;;16.00;99.90;;;;;;5067527;28;20396;-68
2023/08/17 05:09:45;;;;;;;12.50;5.47;;;16.00;99.90;;;;;;5056207;28;20032;-67
2023/08/17 05:12:11;;;;;;;11.48;5.25;;;16.10;99.90;;;;;;5066442;28;20380;-68
2023/08/17 05:14:36;;;;;;;13.45;5.18;;;16.10;99.90;;;;;;5056184;28;20280;-68
2023/08/17 05:17:02;;;;;;;14.07;5.00;;;16.20;99.90;;;;;;5061529;28;20032;-67
2023/08/17 05:19:27;;;;;;;11.85;4.65;;;16.20;99.90;;;;;;5069274;28;20024;-67
2023/08/17 05:21:53;;;;;;;12.95;4.78;;;16.20;99.90;;;;;;5056541;28;20158;-70
2023/08/17 05:24:20;;;;;;;12.48;4.90;;;16.30;99.90;;;;;;5065193;28;20076;-69
2023/08/17 05:26:46;;;;;;;10.98;4.63;;;16.40;99.90;;;;;;5063868;28;20033;-66
2023/08/17 05:29:11;;;;;;;13.27;4.45;;;16.40;99.90;;;;;;5069191;28;20028;-65
2023/08/17 05:31:37;;;;;;;10.30;4.60;;;16.50;99.90;;;;;;5070030;28;20477;-67
2023/08/17 05:34:03;;;;;;;11.35;4.10;;;16.50;99.90;;;;;;5057892;28;20415;-67
2023/08/17 05:36:28;;;;;;;11.27;4.07;;;16.60;99.90;;;;;;5063907;28;20469;-67
2023/08/17 05:38:54;;;;;;;13.00;4.32;;;16.60;99.90;;;;;;5064912;28;20029;-67
2023/08/17 05:41:19;;;;;;;8.82;3.90;;;16.60;99.90;;;;;;5056496;28;20037;-67
2023/08/17 05:43:45;;;;;;;8.85;3.70;;;16.60;99.90;;;;;;5068431;28;20048;-67
2023/08/17 05:46:10;;;;;;;11.50;3.88;;;16.70;99.90;;;;;;5058399;28;20039;-67
2023/08/17 05:48:36;;;;;;;10.75;3.97;;;16.70;99.90;;;;;;5062441;28;20096;-67
2023/08/17 05:51:02;;;;;;;9.07;4.10;;;16.80;99.90;;;;;;5065770;28;20119;-68
2023/08/17 05:53:28;;;;;;;11.35;3.72;;;16.90;99.90;;;;;;5054367;28;20492;-67
2023/08/17 05:55:54;;;;;;;8.50;3.65;;;17.00;99.90;;;;;;5068293;28;20036;-67
2023/08/17 05:58:19;;;;;;;10.05;4.07;;;17.00;99.90;;;;;;5059459;28;20028;-67
2023/08/17 06:00:45;;;;;;;8.20;3.70;;;17.10;99.90;;;;;;5061146;28;20078;-67
2023/08/17 06:03:11;;;;;;;11.07;4.05;;;17.20;99.90;;;;;;5067180;28;20119;-67
2023/08/17 06:05:36;;;;;;;10.35;3.60;;;17.30;99.90;;;;;;5055531;28;20158;-66
2023/08/17 06:08:02;;;;;;;13.05;3.28;;;17.50;99.90;;;;;;5062857;28;20025;-67
2023/08/17 06:10:27;;;;;;;8.63;3.53;;;17.60;99.90;;;;;;5053109;28;20464;-67
2023/08/17 06:12:54;;;;;;;8.80;3.38;;;17.70;99.90;;;;;;5063689;28;20024;-67
2023/08/17 06:15:20;;;;;;;8.95;3.22;;;17.90;99.90;;;;;;5056305;28;20041;-68
2023/08/17 06:17:46;;;;;;;8.70;2.97;;;18.00;99.90;;;;;;5068151;28;20461;-66
2023/08/17 06:20:12;;;;;;;10.00;3.35;;;18.10;99.90;;;;;;5058510;28;20487;-67
2023/08/17 06:22:38;;;;;;;8.45;3.25;;;18.10;99.90;;;;;;5062189;28;20071;-67
2023/08/17 06:25:05;;;;;;;5.90;3.30;;;18.10;99.90;;;;;;5064383;28;20082;-66
2023/08/17 06:27:31;;;;;;;9.48;3.05;;;18.10;99.90;;;;;;5055021;28;20017;-67
2023/08/17 06:29:57;;;;;;;9.15;3.10;;;18.20;99.90;;;;;;5067887;28;20051;-67
2023/08/17 06:32:23;;;;;;;6.90;2.78;;;18.20;99.90;;;;;;5060149;28;20036;-67
2023/08/17 06:34:48;;;;;;;10.90;2.80;;;18.20;99.90;;;;;;5060411;28;20127;-67
2023/08/17 06:37:14;;;;;;;9.90;3.13;;;18.20;99.90;;;;;;5066980;28;20021;-66
2023/08/17 06:39:40;;;;;;;6.78;2.97;;;18.20;99.90;;;;;;5055276;28;20094;-67
2023/08/17 06:42:05;;;;;;;7.05;3.35;;;18.30;99.90;;;;;;5063088;28;20377;-67
2023/08/17 06:44:31;;;;;;;5.93;2.50;;;18.50;99.90;;;;;;5065246;28;20536;-67
2023/08/17 06:46:58;;;;;;;10.30;2.65;;;18.60;99.90;;;;;;5058572;28;20052;-67
2023/08/17 06:49:24;;;;;;;13.02;2.95;;;18.80;99.90;;;;;;5064915;28;20101;-67
2023/08/17 06:51:50;;;;;;;6.47;2.30;;;19.00;99.90;;;;;;5051029;28;20071;-67
2023/08/17 06:54:16;;;;;;;6.40;2.47;;;19.10;99.90;;;;;;5055909;28;20122;-67
2023/08/17 06:56:41;;;;;;;4.28;2.28;;;19.20;99.90;;;;;;5061297;28;20037;-67
2023/08/17 06:59:07;;;;;;;8.82;2.10;;;19.30;99.90;;;;;;5069800;28;20043;-67
2023/08/17 07:01:32;;;;;;;9.88;2.75;;;19.40;99.90;;;;;;5059146;28;20025;-67
2023/08/17 07:03:58;;;;;;;8.60;2.92;;;19.50;99.90;;;;;;5071092;28;20052;-68
2023/08/17 07:06:24;;;;;;;7.97;2.13;;;19.50;99.90;;;;;;5063439;28;20024;-67
2023/08/17 07:08:52;;;;;;;7.45;1.92;;;19.60;99.90;;;;;;5063864;28;20083;-67
2023/08/17 07:11:18;;;;;;;5.75;2.58;;;19.70;99.90;;;;;;5070025;28;20031;-67
2023/08/17 07:13:44;;;;;;;8.05;2.00;;;19.80;99.90;;;;;;5058876;28;20021;-68
2023/08/17 07:16:09;;;;;;;8.05;2.15;;;19.80;99.90;;;;;;5069779;28;20021;-69
2023/08/17 07:18:35;;;;;;;5.30;2.25;;;19.90;99.90;;;;;;5065147;28;20370;-68
2023/08/17 07:21:00;;;;;;;4.70;1.88;;;20.00;99.90;;;;;;5061928;28;20507;-67
2023/08/17 07:23:26;;;;;;;5.07;2.13;;;20.00;99.90;;;;;;5071745;28;20044;-69
2023/08/17 07:25:51;;;;;;;6.25;2.13;;;20.10;99.90;;;;;;5058679;28;20107;-68
2023/08/17 07:28:17;;;;;;;5.20;1.80;;;20.10;99.90;;;;;;5067820;28;20059;-69
2023/08/17 07:30:42;;;;;;;4.53;1.88;;;20.20;99.90;;;;;;5063811;28;20056;-67
2023/08/17 07:33:08;;;;;;;7.22;2.08;;;20.30;99.90;;;;;;5073676;28;20037;-67
2023/08/17 07:35:34;;;;;;;7.10;1.50;;;20.40;99.90;;;;;;5058381;28;20021;-68
2023/08/17 07:37:59;;;;;;;7.25;2.03;;;20.50;99.90;;;;;;5070118;28;20532;-67
2023/08/17 07:40:25;;;;;;;4.50;1.70;;;20.60;99.90;;;;;;5062782;28;20366;-68
2023/08/17 07:42:50;;;;;;;4.45;1.65;;;20.70;99.90;;;;;;5062710;28;20393;-67
2023/08/17 07:45:16;;;;;;;9.15;1.95;;;20.70;99.90;;;;;;5069842;28;20028;-68
2023/08/17 07:47:42;;;;;;;4.78;1.85;;;20.90;99.90;;;;;;5057799;28;20057;-69
2023/08/17 07:50:07;;;;;;;6.93;1.90;;;20.90;99.90;;;;;;5068752;28;20028;-68
2023/08/17 07:52:33;;;;;;;7.40;2.03;;;21.00;99.90;;;;;;5063874;28;20118;-69
2023/08/17 07:54:59;;;;;;;5.40;2.03;;;21.00;99.90;;;;;;5061733;28;20032;-68
2023/08/17 07:57:25;;;;;;;3.05;1.58;;;21.10;99.90;;;;;;5059062;28;20027;-69
2023/08/17 07:59:51;;;;;;;7.57;2.05;;;21.20;99.90;;;;;;5058557;28;20024;-68
2023/08/17 08:02:17;;;;;;;11.32;2.10;;;21.30;99.90;;;;;;5067265;28;20028;-68
2023/08/17 08:04:43;;;;;;;6.00;1.80;;;21.50;99.90;;;;;;5064841;28;20070;-67
2023/08/17 08:07:09;;;;;;;4.65;1.77;;;21.90;99.90;;;;;;5059793;28;20540;-68
2023/08/17 08:09:34;;;;;;;5.53;2.10;;;22.20;99.90;;;;;;5069155;28;20066;-67
2023/08/17 08:12:00;;;;;;;7.07;1.63;;;22.30;99.90;;;;;;5059085;28;20407;-68
2023/08/17 08:14:26;;;;;;;3.85;1.67;;;22.40;99.90;;;;;;5065909;28;20025;-68
2023/08/17 08:16:51;;;;;;;4.80;1.63;;;22.60;99.90;;;;;;5065973;28;20594;-69
2023/08/17 08:19:17;;;;;;;4.88;1.52;;;22.80;99.90;;;;;;5058540;28;20029;-68
2023/08/17 08:21:43;;;;;;;4.82;1.75;;;23.10;99.90;;;;;;5070256;28;20503;-68
2023/08/17 08:24:08;;;;;;;5.10;1.50;;;23.30;99.90;;;;;;5059306;28;20037;-67
2023/08/17 08:26:34;;;;;;;7.75;1.67;;;23.50;99.90;;;;;;5063315;28;20021;-67
2023/08/17 08:29:00;;;;;;;4.85;1.52;;;23.60;99.90;;;;;;5065993;28;20025;-68
2023/08/17 08:31:25;;;;;;;4.10;1.50;;;23.70;99.90;;;;;;5055407;28;20028;-69
2023/08/17 08:33:52;;;;;;;4.03;1.58;;;24.00;99.90;;;;;;5068777;28;20025;-68
2023/08/17 08:36:18;;;;;;;5.53;1.40;;;25.10;99.90;;;;;;5066371;28;20358;-68
2023/08/17 08:38:44;;;;;;;3.53;1.17;;;25.80;99.90;;;;;;5064416;28;20070;-69
2023/08/17 08:41:11;;;;;;;3.65;1.48;;;26.70;98.80;;;;;;5059806;28;20057;-69
2023/08/17 08:43:36;;;;;;;3.40;1.55;;;27.40;98.10;;;;;;5070148;28;20036;-68
2023/08/17 08:46:03;;;;;;;4.78;1.42;;;27.40;97.60;;;;;;5058602;28;20032;-68
2023/08/17 08:48:29;;;;;;;4.45;1.92;;;27.30;97.50;;;;;;5064994;28;20080;-70
2023/08/17 08:50:56;;;;;;;3.60;1.77;;;27.60;97.30;;;;;;5066071;28;20040;-69
2023/08/17 08:53:31;;;;;;;5.80;1.55;;;28.40;96.30;;;;;;5073336;28;20044;-70
2023/08/17 08:56:02;;;;;;;5.13;1.58;;;28.80;96.00;;;;;;5042402;28;20032;-69
2023/08/17 08:58:29;;;;;;;5.45;1.38;;;29.50;95.20;;;;;;5064798;28;20037;-69
2023/08/17 09:00:57;;;;;;;4.18;1.63;;;30.10;94.10;;;;;;5065322;28;20116;-70
2023/08/17 09:03:23;;;;;;;4.85;1.40;;;30.70;93.50;;;;;;5057374;28;20049;-67
2023/08/17 09:05:50;;;;;;;4.35;1.63;;;31.20;92.90;;;;;;5070104;28;20025;-70
2023/08/17 09:08:20;;;;;;;3.78;1.35;;;31.50;92.30;;;;;;5060316;28;20020;-67
2023/08/17 09:10:46;;;;;;;3.88;1.33;;;31.50;92.10;;;;;;5062663;28;20036;-66
2023/08/17 09:13:12;;;;;;;5.90;1.27;;;31.40;91.80;;;;;;5066886;28;20484;-69
2023/08/17 09:15:38;;;;;;;3.75;1.58;;;31.10;92.00;;;;;;5054947;28;20036;-67
2023/08/17 09:18:07;;;;;;;7.18;1.30;;;30.70;92.40;;;;;;5067267;28;20056;-67
2023/08/17 09:20:36;;;;;;;5.53;1.58;;;30.40;92.60;;;;;;5057056;28;20032;-69
2023/08/17 09:23:04;;;;;;;3.92;1.42;;;30.40;92.50;;;;;;5055043;28;20104;-67
2023/08/17 09:25:31;;;;;;;2.80;1.38;;;30.40;92.50;;;;;;5056726;28;20041;-68
2023/08/17 09:27:57;;;;;;;5.65;1.73;;;30.20;92.60;;;;;;5068261;28;20053;-68
2023/08/17 09:30:23;;;;;;;4.85;1.40;;;29.80;92.90;;;;;;5063812;28;20076;-67
2023/08/17 09:32:49;;;;;;;6.32;1.60;;;29.70;92.80;;;;;;5064369;28;20024;-68
2023/08/17 09:35:15;;;;;;;5.15;1.35;;;29.70;92.80;;;;;;5057437;28;20060;-69
2023/08/17 09:37:40;;;;;;;6.82;1.60;;;29.60;92.80;;;;;;5064462;28;20518;-69
2023/08/17 09:40:06;;;;;;;5.60;1.30;;;30.10;92.70;;;;;;5065800;28;20492;-70
2023/08/17 09:42:35;;;;;;;6.05;1.30;;;30.50;92.40;;;;;;5061738;28;20476;-69
2023/08/17 09:45:02;;;;;;;5.43;1.70;;;31.00;91.60;;;;;;5059515;28;20072;-69
2023/08/17 09:47:27;;;;;;;5.38;1.40;;;30.90;91.60;;;;;;5068607;28;20079;-68
2023/08/17 09:49:54;;;;;;;6.18;1.45;;;30.40;92.10;;;;;;5056145;28;20086;-69
2023/08/17 09:52:23;;;;;;;3.63;1.00;;;30.00;92.30;;;;;;5070705;28;20039;-68
2023/08/17 09:54:49;;;;;;;5.82;1.30;;;30.20;92.20;;;;;;5070149;28;20036;-68
2023/08/17 09:57:15;;;;;;;6.75;1.52;;;30.40;92.40;;;;;;5057483;28;20029;-68
2023/08/17 09:59:41;;;;;;;3.53;1.33;;;30.20;92.30;;;;;;5068791;28;20028;-68
2023/08/17 10:02:23;;;;;;;5.07;1.40;;;30.20;92.30;;;;;;5058155;28;20035;-68
2023/08/17 10:04:50;;;;;;;;;;;30.10;92.20;;;;;;5061393;28;20068;-69
2023/08/17 10:07:20;;;;;;;6.32;1.70;;;29.70;92.60;;;;;;5067233;28;19944;-68
2023/08/17 10:09:52;;;;;;;8.85;2.17;;;29.30;93.10;;;;;;5055749;28;20094;-69
2023/08/17 10:12:19;;;;;;;5.65;1.48;;;29.70;93.00;;;;;;5064707;28;20021;-68
2023/08/17 10:14:53;;;;;;;6.53;1.90;;;30.30;92.50;;;;;;5062906;28;20031;-69
2023/08/17 10:17:26;;;;;;;4.55;1.63;;;30.90;92.20;;;;;;5056678;28;20417;-68
2023/08/17 10:19:58;;;;;;;8.48;1.90;;;31.20;91.60;;;;;;5039461;28;20048;-69
2023/08/17 10:22:46;;;;;;;3.70;1.30;;;30.80;91.80;;;;;;5064085;28;20040;-68
2023/08/17 10:25:13;;;;;;;4.45;1.77;;;30.40;91.90;;;;;;5066482;28;20036;-70
2023/08/17 10:27:40;;;;;;;6.63;1.77;;;30.30;92.30;;;;;;5055443;28;20054;-68
2023/08/17 10:30:10;;;;;;;4.00;1.58;;;30.30;92.30;;;;;;5058963;28;20024;-68
2023/08/17 10:32:36;;;;;;;5.97;1.65;;;29.90;92.70;;;;;;5065023;28;20040;-69
2023/08/17 10:35:03;;;;;;;5.90;1.63;;;29.60;92.90;;;;;;5069486;28;20027;-68
2023/08/17 10:37:29;;;;;;;4.00;1.75;;;29.40;93.00;;;;;;5059217;28;20025;-70
2023/08/17 10:39:55;;;;;;;7.03;2.28;;;29.30;93.10;;;;;;5071006;28;20025;-70
2023/08/17 10:42:35;;;;;;;3.58;1.67;;;29.50;93.10;;;;;;5064315;28;20360;-68
2023/08/17 10:45:03;;;;;;;5.20;1.83;;;30.50;92.20;;;;;;5063087;28;20358;-68
2023/08/17 10:47:32;;;;;;;6.80;1.65;;;31.20;91.50;;;;;;5072396;28;20121;-68
2023/08/17 10:49:59;;;;;;;4.32;1.50;;;31.70;91.20;;;;;;5056712;28;20119;-69
2023/08/17 10:52:37;;;;;;;9.15;2.13;;;32.10;90.70;;;;;;5059532;28;20061;-69
2023/08/17 10:55:09;;;;;;;5.97;2.00;;;32.20;90.40;;;;;;5068887;28;20024;-69
2023/08/17 10:57:40;;;;;;;5.25;1.65;;;32.10;90.60;;;;;;5055385;28;20071;-68
2023/08/17 11:00:29;;;;;;;5.68;1.50;;;31.70;90.90;;;;;;5068572;28;20025;-69
2023/08/17 11:02:59;;;;;;;8.63;1.88;;;31.00;91.00;;;;;;5061320;28;20021;-68
2023/08/17 11:05:51;;;;;;;5.95;1.83;;;30.70;91.30;;;;;;5071788;28;20064;-68
2023/08/17 11:08:27;;;;;;;4.57;1.20;;;30.60;91.60;;;;;;5050087;28;20017;-68
2023/08/17 11:11:09;;;;;;;4.63;1.50;;;30.20;91.80;;;;;;5063283;28;20109;-69
2023/08/17 11:13:36;;;;;;;;;;;29.90;92.10;;;;;;5072051;28;20110;-71
2023/08/17 11:16:03;;;;;;;8.45;1.70;;;30.20;91.80;;;;;;5060251;28;19954;-70
2023/08/17 11:18:28;;;;;;;5.72;1.83;;;30.50;91.70;;;;;;5066744;28;20029;-68
2023/08/17 11:20:55;;;;;;;8.25;2.17;;;31.10;91.30;;;;;;5067113;28;20509;-70
2023/08/17 11:23:22;;;;;;;3.63;1.30;;;31.80;91.00;;;;;;5057917;28;20032;-70
2023/08/17 11:25:47;;;;;;;7.13;1.63;;;32.20;90.50;;;;;;5071207;28;20056;-70
2023/08/17 11:28:16;;;;;;;5.85;1.80;;;32.40;90.10;;;;;;5061873;28;20549;-69
2023/08/17 11:30:42;;;;;;;5.25;1.50;;;32.10;90.40;;;;;;5064615;28;20491;-68
2023/08/17 11:33:08;;;;;;;3.65;1.70;;;31.00;91.10;;;;;;5069284;28;20031;-68
2023/08/17 11:35:34;;;;;;;5.13;1.50;;;31.00;91.20;;;;;;5058468;28;20033;-70
2023/08/17 11:38:00;;;;;;;7.53;1.40;;;31.70;90.50;;;;;;5069959;28;20047;-68
2023/08/17 11:40:26;;;;;;;5.03;1.95;;;31.70;90.60;;;;;;5061750;28;20481;-67
2023/08/17 11:42:53;;;;;;;4.78;1.58;;;32.20;90.40;;;;;;5061345;28;20025;-70
2023/08/17 11:45:18;;;;;;;6.13;1.88;;;32.70;89.70;;;;;;5070473;28;20064;-68
2023/08/17 11:47:46;;;;;;;6.95;1.60;;;33.20;89.80;;;;;;5058906;28;20079;-69
2023/08/17 11:50:12;;;;;;;8.70;1.50;;;33.50;88.80;;;;;;5063508;28;20452;-68
2023/08/17 11:52:38;;;;;;;6.07;1.65;;;33.60;88.80;;;;;;5064217;28;20021;-69
2023/08/17 11:55:05;;;;;;;6.53;1.70;;;33.60;88.60;;;;;;5068235;28;20024;-69
2023/08/17 11:57:32;;;;;;;7.20;1.95;;;33.30;89.00;;;;;;5057576;28;20445;-68
2023/08/17 11:59:59;;;;;;;9.40;1.85;;;33.00;89.00;;;;;;5070557;28;20468;-69
2023/08/17 12:02:26;;;;;;;5.78;1.58;;;32.30;90.00;;;;;;5062855;28;20039;-69
2023/08/17 12:04:52;;;;;;;5.45;1.73;;;32.10;90.00;;;;;;5062566;28;20068;-69
2023/08/17 12:07:19;;;;;;;7.43;1.60;;;32.00;89.70;;;;;;5069692;28;20055;-70
2023/08/17 12:09:46;;;;;;;6.47;2.13;;;31.60;90.20;;;;;;5057423;28;20431;-69
2023/08/17 12:12:12;;;;;;;6.38;2.00;;;31.30;90.60;;;;;;5067565;28;20025;-68
2023/08/17 12:14:41;;;;;;;4.97;1.80;;;31.30;90.60;;;;;;5064161;28;20476;-69
2023/08/17 12:17:07;;;;;;;8.00;2.00;;;31.60;90.40;;;;;;5059803;28;20381;-69
2023/08/17 12:19:33;;;;;;;6.03;1.90;;;32.10;90.20;;;;;;5070561;28;20028;-70
2023/08/17 12:21:58;;;;;;;5.45;2.03;;;32.70;89.70;;;;;;5058465;28;20029;-69
2023/08/17 12:24:24;;;;;;;5.53;1.98;;;33.20;88.50;;;;;;5065763;28;20033;-69
2023/08/17 12:26:50;;;;;;;4.00;1.60;;;33.20;88.00;;;;;;5065705;28;20028;-69
2023/08/17 12:29:15;;;;;;;6.88;1.90;;;33.30;88.10;;;;;;5073903;28;20024;-69
2023/08/17 12:31:41;;;;;;;5.15;1.75;;;33.40;87.80;;;;;;5073836;28;20113;-68
2023/08/17 12:34:07;;;;;;;3.55;1.38;;;33.60;87.40;;;;;;5061645;28;20074;-68
2023/08/17 12:36:32;;;;;;;3.58;1.73;;;33.00;88.00;;;;;;5065375;28;20083;-69
2023/08/17 12:38:58;;;;;;;5.68;2.13;;;32.20;89.00;;;;;;5062561;28;20106;-68
2023/08/17 12:41:24;;;;;;;4.22;1.80;;;31.40;90.00;;;;;;5068436;28;20523;-71